• Join FlightAware (Why Join?)
  • Login
  • US Flag 
08:52AM EDT


 

Airport Tracker/Info


-or-


 

Live Flight TrackerFlight Track Log ✈ FFT346 ✈ 22-Apr-2013 ✈ KDEN - KBBG

Flight Track Log - Related Links

Times and Time Zones

All times are in EDT time to prevent confusion due to time zone crossing. See the FFT346 flight status page for this flight to view local times or setup timezone preferences in your user account.

Time Position Orientation Groundspeed Altitude Reporting Facility
EDT Latitude Longitude Course Direction KTS MPH feet Rate Location/Type
12:35PM 39.8667 -104.5500 108° East 201 231 7,400  Level Denver TRACON
12:36PM 39.8333 -104.4667 117° Southeast 290 334 9,600 2,220 Climbing Denver TRACON
12:37PM 39.8225 -104.4297 111° Southeast 287 330 10,600 2,040 Climbing Denver Center
12:38PM 39.7831 -104.3178 115° Southeast 349 402 12,600 2,580 Climbing Denver Center
12:39PM 39.7375 -104.1872 114° Southeast 372 428 16,000 2,700 Climbing Denver Center
12:40PM 39.6942 -104.0603 114° Southeast 386 444 18,200 2,220 Climbing Denver Center
12:41PM 39.5994 -103.8478 108° East  Level FlightAware Approximate
12:41PM 39.6431 -103.9236 116° Southeast 416 479 20,600  Level Denver Center
12:42PM 39.5853 -103.7733 116° Southeast 434 499 23,000 2,040 Climbing Denver Center
12:43PM 39.5461 -103.6242 109° East 432 497 24,900 1,440 Climbing Denver Center
12:44PM 39.5042 -103.4578 108° East 473 544 26,100 1,200 Climbing Denver Center
12:45PM 39.4575 -103.2856 109° East 495 570 27,500 1,260 Climbing Denver Center
12:46PM 39.4108 -103.1058 109° East 516 594 28,800 1,440 Climbing Denver Center
12:47PM 39.3594 -102.9200 110° East 538 619 30,500 1,800 Climbing Denver Center
12:48PM 39.3083 -102.7286 109° East 539 620 32,600 2,040 Climbing Denver Center
12:49PM 39.2533 -102.5286 109° East 531 611 34,800 1,500 Climbing Denver Center
12:50PM 39.2083 -102.3642 109° East 512 589 35,700 1,020 Climbing Denver Center
12:51PM 39.1558 -102.1714 109° East 507 583 37,000 600 Climbing Denver Center
12:52PM 39.1103 -102.0075 110° East 507 583 37,000  Level Denver Center
12:53PM 39.0564 -101.8175 110° East 507 583 37,000  Level Denver Center
12:54PM 39.0164 -101.6817 111° Southeast 509 586 37,000  Level Denver Center
12:55PM 38.9525 -101.4628 111° Southeast 510 587 37,000  Level Denver Center
12:56PM 38.9056 -101.2992 110° East 509 586 37,000  Level Denver Center
12:57PM 38.8497 -101.1100 111° Southeast 507 583 37,000  Level Denver Center
12:58PM 38.8022 -100.9467 110° East 510 587 37,000  Level Denver Center
12:59PM 38.7464 -100.7592 111° Southeast 505 581 37,000  Level Denver Center
01:00PM 38.6983 -100.5983 111° Southeast 505 581 37,000  Level Denver Center
01:01PM 38.6503 -100.4381 111° Southeast 504 580 37,000  Level Denver Center
01:02PM 38.5936 -100.2506 111° Southeast 504 580 37,000  Level Denver Center
01:04PM 38.5444 -100.0881 111° Southeast 510 587 37,000  Level Denver Center
01:05PM 38.4864 -99.9000 111° Southeast 508 585 37,100  Climbing Denver Center
01:05PM 38.4536 -99.7925 111° Southeast 506 582 37,100 -60 Level Kansas City Center
01:06PM 38.3953 -99.6053 112° Southeast 507 583 37,000 -60 Descending Kansas City Center
01:07PM 38.3453 -99.4469 112° Southeast 505 581 37,000  Level Kansas City Center
01:08PM 38.2939 -99.2817 112° Southeast 504 580 37,000  Level Kansas City Center
01:09PM 38.2419 -99.1183 112° Southeast 500 575 37,000  Level Kansas City Center
01:11PM 38.1803 -98.9236 112° Southeast 498 573 37,000  Level Kansas City Center
01:12PM 38.1189 -98.7675 117° Southeast 494 568 37,000  Level Kansas City Center
01:13PM 38.0542 -98.6144 118° Southeast 494 568 37,000  Level Kansas City Center
01:14PM 37.9889 -98.4608 118° Southeast 496 571 37,000  Level Kansas City Center
01:15PM 37.9239 -98.3083 118° Southeast 496 571 37,000  Level Kansas City Center
01:16PM 37.8447 -98.1258 119° Southeast 499 574 37,000  Level Kansas City Center
01:17PM 37.7853 -97.9900 119° Southeast 500 575 37,000  Level Kansas City Center
01:18PM 37.7044 -97.8022 119° Southeast 503 579 37,000  Level Kansas City Center
01:19PM 37.6358 -97.6478 119° Southeast 502 578 37,000  Level Kansas City Center
01:20PM 37.5678 -97.4867 118° Southeast 503 579 37,000  Level Kansas City Center
01:21PM 37.5000 -97.3331 119° Southeast 504 580 37,000  Level Kansas City Center
01:22PM 37.4322 -97.1792 119° Southeast 504 580 37,000 -60 Level Kansas City Center
01:23PM 37.3642 -97.0272 119° Southeast 502 578 36,900 -480 Descending Kansas City Center
01:24PM 37.2956 -96.8744 119° Southeast 501 577 36,100 -780 Descending Kansas City Center
01:25PM 37.2283 -96.7247 119° Southeast 495 570 35,300 -900 Descending Kansas City Center
01:26PM 37.1475 -96.5483 120° Southeast 487 560 34,300 -840 Descending Kansas City Center
01:27PM 37.0853 -96.4078 119° Southeast 474 545 33,600 -720 Descending Kansas City Center
01:28PM 37.0214 -96.2661 119° Southeast 466 536 32,800 -840 Descending Kansas City Center
01:29PM 36.9572 -96.1278 120° Southeast 460 529 32,000 -780 Descending Kansas City Center
01:30PM 36.8928 -95.9872 120° Southeast 462 532 31,200 -780 Descending Kansas City Center
01:31PM 36.8236 -95.8358 120° Southeast 491 565 30,400 -960 Descending Kansas City Center
01:32PM 36.7386 -95.6519 120° Southeast 507 583 29,300 -780 Descending Kansas City Center
01:33PM 36.6842 -95.4917 113° Southeast 498 573 28,800 -540 Descending Kansas City Center
01:34PM 36.6575 -95.3222 101° East 493 567 28,300 -540 Descending Kansas City Center
01:35PM 36.6497 -95.1514 93° East 488 562 27,800 -480 Descending Kansas City Center
01:36PM 36.6400 -94.9853 94° East 480 552 27,300 -1,080 Descending Kansas City Center
01:37PM 36.6303 -94.8239 94° East 470 541 25,600 -1,920 Descending Kansas City Center
01:38PM 36.6222 -94.6664 94° East 459 528 23,300 -2,340 Descending Kansas City Center
01:39PM 36.6139 -94.5136 94° East 446 513 21,000 -2,520 Descending Kansas City Center
01:40PM 36.6025 -94.3369 95° East 429 494 18,200 -2,400 Descending Kansas City Center
01:42PM 36.5939 -94.1944 94° East 417 480 16,000 -2,220 Descending Kansas City Center
01:43PM 36.5864 -94.0558 94° East 406 467 13,700 -2,040 Descending Kansas City Center
01:44PM 36.5861 -93.9222 90° East 392 451 11,800 -1,440 Descending Kansas City Center
01:45PM 36.5933 -93.8086 85° East 339 390 10,700 -1,560 Descending Kansas City Center
01:46PM 36.5958 -93.6956 88° East 304 350 8,600 -2,100 Descending Kansas City Center
01:47PM 36.6006 -93.6067 86° East 289 333 6,400 -1,800 Descending Kansas City Center
01:48PM 36.6056 -93.5128 86° East 281 323 5,000 -1,380 Descending Kansas City Center
01:50PM 36.5333 -93.2463 90° East  Level FlightAware Approximate
01:57PM 36.5167 -93.2000 141° Southeast  Level FlightAware Approximate
01:58PM 36.5321 -93.2005 141° Southeast  Level Estimated
01:59PM 36.5321 -93.2005 141° Southeast  Level Estimated
02:00PM 36.5321 -93.2005 141° Southeast  Level Estimated